Rosamond, CA

5:47 AM PST on January 27, 2015 (GMT -0800)
Gen Fox | Change Station
CLOSE
Current Station
Airport
Location: Lancaster,
Elevation: 2346 ft
Nearby Weather Stations

Elev 2346 ft 34.74 °N, 118.22 °W | Updated 12 minutes ago

Overcast
Overcast
48 °F
Feels Like 48 °F
N
0
Wind Variable Wind from North

Today
High -- | Low -- °F
--% Chance of Precip.
Yesterday
High -- | Low -- °F
Precip. -- in
6:55 AM 5:16 PM
First Quarter, 54% visible
Pressure 30.18 in
Visibility 10.0 miles
Clouds Mostly Cloudy 900 ft
Mostly Cloudy 5500 ft
Overcast 7000 ft
Dew Point 46 °F
Humidity 93%
Rainfall 0.00 in
Snow Depth Not available.
UV 0 out of 12
Pollen 2.60 out of 12
Air Quality Not available.
Flu Activity Not available.
SPECI KWJF 271335Z AUTO 00000KT 10SM BKN009 BKN055 OVC070 09/08 A3018 RMK AO2 T00890078

More Conditions Fewer Conditions

Pressure 30.18 in
Visibility 10.0 miles
Clouds Mostly Cloudy 900 ft
Mostly Cloudy 5500 ft
Overcast 7000 ft
Dew Point 46 °F
Humidity 93%
Rainfall 0.00 in
Snow Depth Not available.
UV 0 out of 12
Pollen 2.60 out of 12
Air Quality Not available.
Flu Activity Not available.
SPECI KWJF 271335Z AUTO 00000KT 10SM BKN009 BKN055 OVC070 09/08 A3018 RMK AO2 T00890078

More Conditions Fewer Conditions

10-Day Weather Forecast

Almanac

Astronomy

Jan. 27, 2015 Rise Set
Actual Time
Civil Twilight
Nautical Twilight
Astronomical Twilight
Moon
Length of Visible Light
Length of Day
Tomorrow will be .
, % of the Moon is Illuminated

Today's Extremes

State Highs State Lows

Community

WunderPhotos

Upload Photos

1,790,628 photos uploaded!

WunderBlogs® & News

Nearby

Air Quality

  Air Quality AQ Index Pollutant
Not available.

Snow Depth

Station Depth Elevation

Earthquake Activity

City Distance Mag. Time & Date
Minimum magnitude displayed is 2.5.

Coastal Water Temperatures

Place Temperature

Nearby Weather Stations